sensor_id;sensor_type;location;lat;lon;timestamp;P1;durP1;ratioP1;P2;durP2;ratioP2
42832;SDS011;64089;51.478;5.692;2023-03-03T00:02:21;38.63;;;14.63;;
42832;SDS011;64089;51.478;5.692;2023-03-03T00:04:46;42.65;;;16.05;;
42832;SDS011;64089;51.478;5.692;2023-03-03T00:07:12;44.75;;;16.48;;
42832;SDS011;64089;51.478;5.692;2023-03-03T00:09:45;34.55;;;14.45;;
42832;SDS011;64089;51.478;5.692;2023-03-03T00:12:17;45.30;;;16.92;;
42832;SDS011;64089;51.478;5.692;2023-03-03T00:14:47;46.83;;;15.85;;
42832;SDS011;64089;51.478;5.692;2023-03-03T00:19:52;45.00;;;17.80;;
42832;SDS011;64089;51.478;5.692;2023-03-03T00:22:28;38.38;;;15.35;;
42832;SDS011;64089;51.478;5.692;2023-03-03T00:25:37;38.63;;;14.73;;
42832;SDS011;64089;51.478;5.692;2023-03-03T00:27:54;43.20;;;16.85;;
42832;SDS011;64089;51.478;5.692;2023-03-03T00:30:23;42.17;;;16.33;;
42832;SDS011;64089;51.478;5.692;2023-03-03T00:32:50;49.55;;;17.15;;
42832;SDS011;64089;51.478;5.692;2023-03-03T00:38:00;40.28;;;15.95;;
42832;SDS011;64089;51.478;5.692;2023-03-03T00:40:41;40.22;;;14.95;;
42832;SDS011;64089;51.478;5.692;2023-03-03T00:45:52;41.13;;;15.82;;
42832;SDS011;64089;51.478;5.692;2023-03-03T00:48:29;42.85;;;15.20;;
42832;SDS011;64089;51.478;5.692;2023-03-03T00:50:59;49.03;;;16.73;;
42832;SDS011;64089;51.478;5.692;2023-03-03T00:53:26;37.85;;;14.57;;
42832;SDS011;64089;51.478;5.692;2023-03-03T00:55:54;41.90;;;14.63;;
42832;SDS011;64089;51.478;5.692;2023-03-03T00:58:23;46.83;;;16.50;;
42832;SDS011;64089;51.478;5.692;2023-03-03T01:00:53;44.35;;;15.02;;
42832;SDS011;64089;51.478;5.692;2023-03-03T01:03:22;37.97;;;13.93;;
42832;SDS011;64089;51.478;5.692;2023-03-03T01:05:48;41.83;;;14.32;;
42832;SDS011;64089;51.478;5.692;2023-03-03T01:08:15;43.25;;;15.20;;
42832;SDS011;64089;51.478;5.692;2023-03-03T01:10:45;38.85;;;15.20;;
42832;SDS011;64089;51.478;5.692;2023-03-03T01:13:16;48.38;;;14.98;;
42832;SDS011;64089;51.478;5.692;2023-03-03T01:15:43;47.95;;;15.23;;
42832;SDS011;64089;51.478;5.692;2023-03-03T01:18:09;45.25;;;13.63;;
42832;SDS011;64089;51.478;5.692;2023-03-03T01:20:36;44.13;;;13.52;;
42832;SDS011;64089;51.478;5.692;2023-03-03T01:23:03;41.38;;;15.23;;
42832;SDS011;64089;51.478;5.692;2023-03-03T01:25:29;50.53;;;15.48;;
42832;SDS011;64089;51.478;5.692;2023-03-03T01:27:55;41.45;;;14.48;;
42832;SDS011;64089;51.478;5.692;2023-03-03T01:30:21;43.53;;;14.20;;
42832;SDS011;64089;51.478;5.692;2023-03-03T01:32:47;42.03;;;14.98;;
42832;SDS011;64089;51.478;5.692;2023-03-03T01:35:13;34.85;;;13.48;;
42832;SDS011;64089;51.478;5.692;2023-03-03T01:37:38;42.40;;;13.75;;
42832;SDS011;64089;51.478;5.692;2023-03-03T01:40:05;42.15;;;14.82;;
42832;SDS011;64089;51.478;5.692;2023-03-03T01:42:32;50.55;;;17.00;;
42832;SDS011;64089;51.478;5.692;2023-03-03T01:48:04;49.72;;;16.50;;
42832;SDS011;64089;51.478;5.692;2023-03-03T01:53:18;52.08;;;16.17;;
42832;SDS011;64089;51.478;5.692;2023-03-03T01:55:50;55.80;;;16.33;;
42832;SDS011;64089;51.478;5.692;2023-03-03T01:58:39;50.55;;;16.15;;
42832;SDS011;64089;51.478;5.692;2023-03-03T02:01:10;55.83;;;16.77;;
42832;SDS011;64089;51.478;5.692;2023-03-03T02:03:39;49.43;;;15.97;;
42832;SDS011;64089;51.478;5.692;2023-03-03T02:06:07;56.03;;;15.73;;
42832;SDS011;64089;51.478;5.692;2023-03-03T02:11:17;49.35;;;17.15;;
42832;SDS011;64089;51.478;5.692;2023-03-03T02:13:49;47.67;;;15.00;;
42832;SDS011;64089;51.478;5.692;2023-03-03T02:16:15;41.33;;;16.65;;
42832;SDS011;64089;51.478;5.692;2023-03-03T02:18:40;46.92;;;14.85;;
42832;SDS011;64089;51.478;5.692;2023-03-03T02:21:09;42.72;;;15.23;;
42832;SDS011;64089;51.478;5.692;2023-03-03T02:26:15;49.53;;;16.52;;
42832;SDS011;64089;51.478;5.692;2023-03-03T02:28:44;46.47;;;14.70;;
42832;SDS011;64089;51.478;5.692;2023-03-03T02:31:14;47.10;;;14.73;;
42832;SDS011;64089;51.478;5.692;2023-03-03T02:33:42;43.38;;;15.35;;
42832;SDS011;64089;51.478;5.692;2023-03-03T02:36:13;38.13;;;14.75;;
42832;SDS011;64089;51.478;5.692;2023-03-03T02:44:28;41.20;;;15.73;;
42832;SDS011;64089;51.478;5.692;2023-03-03T02:46:56;45.88;;;15.80;;
42832;SDS011;64089;51.478;5.692;2023-03-03T02:49:25;39.88;;;14.43;;
42832;SDS011;64089;51.478;5.692;2023-03-03T02:51:53;48.25;;;15.82;;
42832;SDS011;64089;51.478;5.692;2023-03-03T02:54:21;56.22;;;17.20;;
42832;SDS011;64089;51.478;5.692;2023-03-03T02:56:48;51.80;;;15.85;;
42832;SDS011;64089;51.478;5.692;2023-03-03T02:59:14;53.22;;;16.85;;
42832;SDS011;64089;51.478;5.692;2023-03-03T03:01:40;50.47;;;14.52;;
42832;SDS011;64089;51.478;5.692;2023-03-03T03:04:07;58.10;;;15.40;;
42832;SDS011;64089;51.478;5.692;2023-03-03T03:06:36;43.10;;;14.00;;
42832;SDS011;64089;51.478;5.692;2023-03-03T03:09:02;49.40;;;15.38;;
42832;SDS011;64089;51.478;5.692;2023-03-03T03:11:28;50.33;;;15.45;;
42832;SDS011;64089;51.478;5.692;2023-03-03T03:13:53;42.88;;;14.30;;
42832;SDS011;64089;51.478;5.692;2023-03-03T03:16:19;50.17;;;16.77;;
42832;SDS011;64089;51.478;5.692;2023-03-03T03:18:44;53.10;;;16.02;;
42832;SDS011;64089;51.478;5.692;2023-03-03T03:21:11;47.92;;;14.85;;
42832;SDS011;64089;51.478;5.692;2023-03-03T03:23:40;55.08;;;17.52;;
42832;SDS011;64089;51.478;5.692;2023-03-03T03:26:07;53.72;;;15.60;;
42832;SDS011;64089;51.478;5.692;2023-03-03T03:28:33;44.72;;;15.30;;
42832;SDS011;64089;51.478;5.692;2023-03-03T03:30:59;44.95;;;14.88;;
42832;SDS011;64089;51.478;5.692;2023-03-03T03:33:27;52.58;;;13.88;;
42832;SDS011;64089;51.478;5.692;2023-03-03T03:35:53;40.25;;;14.27;;
42832;SDS011;64089;51.478;5.692;2023-03-03T03:38:20;42.90;;;15.27;;
42832;SDS011;64089;51.478;5.692;2023-03-03T03:40:46;46.20;;;15.02;;
42832;SDS011;64089;51.478;5.692;2023-03-03T03:43:12;44.40;;;15.60;;
42832;SDS011;64089;51.478;5.692;2023-03-03T03:45:37;47.10;;;16.15;;
42832;SDS011;64089;51.478;5.692;2023-03-03T03:48:05;53.83;;;15.18;;
42832;SDS011;64089;51.478;5.692;2023-03-03T03:50:31;53.63;;;15.75;;
42832;SDS011;64089;51.478;5.692;2023-03-03T03:52:57;50.08;;;15.68;;
42832;SDS011;64089;51.478;5.692;2023-03-03T03:55:22;53.03;;;16.95;;
42832;SDS011;64089;51.478;5.692;2023-03-03T03:57:48;44.53;;;15.88;;
42832;SDS011;64089;51.478;5.692;2023-03-03T04:00:13;52.35;;;16.02;;
42832;SDS011;64089;51.478;5.692;2023-03-03T04:02:39;52.35;;;15.18;;
42832;SDS011;64089;51.478;5.692;2023-03-03T04:05:05;47.38;;;14.45;;
42832;SDS011;64089;51.478;5.692;2023-03-03T04:07:31;49.10;;;15.57;;
42832;SDS011;64089;51.478;5.692;2023-03-03T04:09:57;56.42;;;15.68;;
42832;SDS011;64089;51.478;5.692;2023-03-03T04:12:22;54.83;;;14.85;;
42832;SDS011;64089;51.478;5.692;2023-03-03T04:14:48;52.20;;;16.02;;
42832;SDS011;64089;51.478;5.692;2023-03-03T04:17:15;47.40;;;16.77;;
42832;SDS011;64089;51.478;5.692;2023-03-03T04:19:45;49.38;;;15.85;;
42832;SDS011;64089;51.478;5.692;2023-03-03T04:22:11;48.05;;;16.02;;
42832;SDS011;64089;51.478;5.692;2023-03-03T04:24:37;51.20;;;16.30;;
42832;SDS011;64089;51.478;5.692;2023-03-03T04:27:03;46.85;;;14.52;;
42832;SDS011;64089;51.478;5.692;2023-03-03T04:29:29;44.20;;;15.68;;
42832;SDS011;64089;51.478;5.692;2023-03-03T04:31:55;42.28;;;15.20;;
42832;SDS011;64089;51.478;5.692;2023-03-03T04:34:20;55.35;;;17.50;;
42832;SDS011;64089;51.478;5.692;2023-03-03T04:36:46;43.38;;;16.10;;
42832;SDS011;64089;51.478;5.692;2023-03-03T04:39:12;41.35;;;14.85;;
42832;SDS011;64089;51.478;5.692;2023-03-03T04:41:37;51.28;;;15.38;;
42832;SDS011;64089;51.478;5.692;2023-03-03T04:44:03;45.67;;;14.98;;
42832;SDS011;64089;51.478;5.692;2023-03-03T04:46:29;53.25;;;14.70;;
42832;SDS011;64089;51.478;5.692;2023-03-03T04:48:54;46.72;;;14.32;;
42832;SDS011;64089;51.478;5.692;2023-03-03T04:51:21;41.78;;;15.57;;
42832;SDS011;64089;51.478;5.692;2023-03-03T04:53:47;47.70;;;15.20;;
42832;SDS011;64089;51.478;5.692;2023-03-03T04:56:12;42.53;;;15.27;;
42832;SDS011;64089;51.478;5.692;2023-03-03T04:58:38;39.20;;;15.07;;
42832;SDS011;64089;51.478;5.692;2023-03-03T05:01:04;45.25;;;15.50;;
42832;SDS011;64089;51.478;5.692;2023-03-03T05:03:30;43.85;;;14.52;;
42832;SDS011;64089;51.478;5.692;2023-03-03T05:05:56;38.15;;;14.38;;
42832;SDS011;64089;51.478;5.692;2023-03-03T05:08:22;48.63;;;15.55;;
42832;SDS011;64089;51.478;5.692;2023-03-03T05:10:51;38.50;;;13.35;;
42832;SDS011;64089;51.478;5.692;2023-03-03T05:13:21;45.42;;;14.75;;
42832;SDS011;64089;51.478;5.692;2023-03-03T05:15:50;43.53;;;12.50;;
42832;SDS011;64089;51.478;5.692;2023-03-03T05:18:17;42.33;;;12.10;;
42832;SDS011;64089;51.478;5.692;2023-03-03T05:20:47;35.70;;;12.98;;
42832;SDS011;64089;51.478;5.692;2023-03-03T05:23:14;43.20;;;14.10;;
42832;SDS011;64089;51.478;5.692;2023-03-03T05:25:40;33.50;;;11.63;;
42832;SDS011;64089;51.478;5.692;2023-03-03T05:28:06;43.17;;;13.50;;
42832;SDS011;64089;51.478;5.692;2023-03-03T05:30:32;36.47;;;13.40;;
42832;SDS011;64089;51.478;5.692;2023-03-03T05:32:59;40.08;;;12.75;;
42832;SDS011;64089;51.478;5.692;2023-03-03T05:35:24;41.33;;;13.25;;
42832;SDS011;64089;51.478;5.692;2023-03-03T05:37:50;45.45;;;13.90;;
42832;SDS011;64089;51.478;5.692;2023-03-03T05:40:17;46.05;;;13.80;;
42832;SDS011;64089;51.478;5.692;2023-03-03T05:42:43;42.97;;;13.82;;
42832;SDS011;64089;51.478;5.692;2023-03-03T05:45:09;38.10;;;13.70;;
42832;SDS011;64089;51.478;5.692;2023-03-03T05:47:35;37.35;;;12.95;;
42832;SDS011;64089;51.478;5.692;2023-03-03T05:50:01;47.83;;;13.35;;
42832;SDS011;64089;51.478;5.692;2023-03-03T05:52:27;46.47;;;12.95;;
42832;SDS011;64089;51.478;5.692;2023-03-03T05:54:53;43.78;;;13.88;;
42832;SDS011;64089;51.478;5.692;2023-03-03T05:57:18;38.88;;;13.07;;
42832;SDS011;64089;51.478;5.692;2023-03-03T05:59:44;44.75;;;12.50;;
42832;SDS011;64089;51.478;5.692;2023-03-03T06:02:10;34.75;;;13.68;;
42832;SDS011;64089;51.478;5.692;2023-03-03T06:04:35;38.10;;;11.73;;
42832;SDS011;64089;51.478;5.692;2023-03-03T06:07:01;42.50;;;14.45;;
42832;SDS011;64089;51.478;5.692;2023-03-03T06:09:26;37.67;;;13.13;;
42832;SDS011;64089;51.478;5.692;2023-03-03T06:11:52;44.85;;;13.48;;
42832;SDS011;64089;51.478;5.692;2023-03-03T06:14:21;38.15;;;13.38;;
42832;SDS011;64089;51.478;5.692;2023-03-03T06:16:46;35.55;;;12.48;;
42832;SDS011;64089;51.478;5.692;2023-03-03T06:19:13;36.60;;;13.10;;
42832;SDS011;64089;51.478;5.692;2023-03-03T06:21:39;33.13;;;11.40;;
42832;SDS011;64089;51.478;5.692;2023-03-03T06:24:05;38.95;;;12.77;;
42832;SDS011;64089;51.478;5.692;2023-03-03T06:26:31;38.47;;;14.35;;
42832;SDS011;64089;51.478;5.692;2023-03-03T06:28:57;30.00;;;12.00;;
42832;SDS011;64089;51.478;5.692;2023-03-03T06:31:23;40.65;;;11.45;;
42832;SDS011;64089;51.478;5.692;2023-03-03T06:33:49;34.08;;;10.73;;
42832;SDS011;64089;51.478;5.692;2023-03-03T06:36:15;33.35;;;10.60;;
42832;SDS011;64089;51.478;5.692;2023-03-03T06:38:41;32.42;;;10.65;;
42832;SDS011;64089;51.478;5.692;2023-03-03T06:41:07;33.22;;;10.52;;
42832;SDS011;64089;51.478;5.692;2023-03-03T06:43:33;30.98;;;10.73;;
42832;SDS011;64089;51.478;5.692;2023-03-03T06:45:59;29.98;;;10.60;;
42832;SDS011;64089;51.478;5.692;2023-03-03T06:48:25;25.33;;;10.00;;
42832;SDS011;64089;51.478;5.692;2023-03-03T06:50:50;33.45;;;12.57;;
42832;SDS011;64089;51.478;5.692;2023-03-03T06:53:16;36.67;;;12.68;;
42832;SDS011;64089;51.478;5.692;2023-03-03T06:55:46;32.55;;;11.43;;
42832;SDS011;64089;51.478;5.692;2023-03-03T06:58:14;39.17;;;13.18;;
42832;SDS011;64089;51.478;5.692;2023-03-03T07:00:52;26.73;;;10.10;;
42832;SDS011;64089;51.478;5.692;2023-03-03T07:03:22;30.23;;;11.45;;
42832;SDS011;64089;51.478;5.692;2023-03-03T07:05:49;30.40;;;11.02;;
42832;SDS011;64089;51.478;5.692;2023-03-03T07:08:17;40.38;;;11.98;;
42832;SDS011;64089;51.478;5.692;2023-03-03T07:10:44;31.88;;;10.50;;
42832;SDS011;64089;51.478;5.692;2023-03-03T07:13:27;32.30;;;11.38;;
42832;SDS011;64089;51.478;5.692;2023-03-03T07:15:58;32.50;;;11.40;;
42832;SDS011;64089;51.478;5.692;2023-03-03T07:20:53;35.25;;;11.55;;
42832;SDS011;64089;51.478;5.692;2023-03-03T07:23:20;31.05;;;11.20;;
42832;SDS011;64089;51.478;5.692;2023-03-03T07:25:47;32.85;;;11.50;;
42832;SDS011;64089;51.478;5.692;2023-03-03T07:28:21;35.53;;;12.30;;
42832;SDS011;64089;51.478;5.692;2023-03-03T07:30:49;34.25;;;11.25;;
42832;SDS011;64089;51.478;5.692;2023-03-03T07:33:18;33.75;;;10.93;;
42832;SDS011;64089;51.478;5.692;2023-03-03T07:35:55;33.35;;;11.25;;
42832;SDS011;64089;51.478;5.692;2023-03-03T07:38:24;31.58;;;11.50;;
42832;SDS011;64089;51.478;5.692;2023-03-03T07:41:02;22.30;;;10.27;;
42832;SDS011;64089;51.478;5.692;2023-03-03T07:43:40;29.08;;;11.25;;
42832;SDS011;64089;51.478;5.692;2023-03-03T07:46:15;27.58;;;10.70;;
42832;SDS011;64089;51.478;5.692;2023-03-03T07:48:49;28.10;;;10.95;;
42832;SDS011;64089;51.478;5.692;2023-03-03T07:51:24;31.92;;;11.38;;
42832;SDS011;64089;51.478;5.692;2023-03-03T07:54:38;33.22;;;10.90;;
42832;SDS011;64089;51.478;5.692;2023-03-03T07:56:40;30.33;;;11.43;;
42832;SDS011;64089;51.478;5.692;2023-03-03T07:59:15;34.65;;;12.23;;
42832;SDS011;64089;51.478;5.692;2023-03-03T08:01:52;31.67;;;10.57;;
42832;SDS011;64089;51.478;5.692;2023-03-03T08:04:21;27.40;;;10.38;;
42832;SDS011;64089;51.478;5.692;2023-03-03T08:06:49;34.28;;;11.40;;
42832;SDS011;64089;51.478;5.692;2023-03-03T08:14:26;25.73;;;10.48;;
42832;SDS011;64089;51.478;5.692;2023-03-03T08:16:55;27.58;;;11.43;;
42832;SDS011;64089;51.478;5.692;2023-03-03T08:19:22;32.97;;;11.15;;
42832;SDS011;64089;51.478;5.692;2023-03-03T08:21:48;33.08;;;11.13;;
42832;SDS011;64089;51.478;5.692;2023-03-03T08:24:13;28.50;;;11.05;;
42832;SDS011;64089;51.478;5.692;2023-03-03T08:26:39;30.25;;;10.00;;
42832;SDS011;64089;51.478;5.692;2023-03-03T08:29:05;37.70;;;10.77;;
42832;SDS011;64089;51.478;5.692;2023-03-03T08:31:30;34.03;;;12.30;;
42832;SDS011;64089;51.478;5.692;2023-03-03T08:33:56;31.65;;;11.02;;
42832;SDS011;64089;51.478;5.692;2023-03-03T08:36:22;26.92;;;10.30;;
42832;SDS011;64089;51.478;5.692;2023-03-03T08:38:48;32.33;;;11.82;;
42832;SDS011;64089;51.478;5.692;2023-03-03T08:41:14;24.48;;;10.20;;
42832;SDS011;64089;51.478;5.692;2023-03-03T08:43:40;27.20;;;10.57;;
42832;SDS011;64089;51.478;5.692;2023-03-03T08:46:05;31.20;;;11.57;;
42832;SDS011;64089;51.478;5.692;2023-03-03T08:48:34;30.98;;;10.93;;
42832;SDS011;64089;51.478;5.692;2023-03-03T08:50:59;27.08;;;10.52;;
42832;SDS011;64089;51.478;5.692;2023-03-03T08:53:25;29.48;;;11.52;;
42832;SDS011;64089;51.478;5.692;2023-03-03T08:55:51;27.30;;;10.32;;
42832;SDS011;64089;51.478;5.692;2023-03-03T08:58:18;76.60;;;27.75;;
42832;SDS011;64089;51.478;5.692;2023-03-03T09:00:44;42.97;;;15.65;;
42832;SDS011;64089;51.478;5.692;2023-03-03T09:03:10;104.30;;;35.08;;
42832;SDS011;64089;51.478;5.692;2023-03-03T09:05:36;48.38;;;15.73;;
42832;SDS011;64089;51.478;5.692;2023-03-03T09:08:03;27.73;;;9.45;;
42832;SDS011;64089;51.478;5.692;2023-03-03T09:10:29;33.45;;;11.10;;
42832;SDS011;64089;51.478;5.692;2023-03-03T09:12:56;27.52;;;10.18;;
42832;SDS011;64089;51.478;5.692;2023-03-03T09:15:32;25.88;;;10.45;;
42832;SDS011;64089;51.478;5.692;2023-03-03T09:20:39;25.88;;;9.80;;
42832;SDS011;64089;51.478;5.692;2023-03-03T09:25:58;33.28;;;11.05;;
42832;SDS011;64089;51.478;5.692;2023-03-03T09:28:42;25.23;;;10.23;;
42832;SDS011;64089;51.478;5.692;2023-03-03T09:31:16;27.73;;;10.25;;
42832;SDS011;64089;51.478;5.692;2023-03-03T09:34:00;24.00;;;9.63;;
42832;SDS011;64089;51.478;5.692;2023-03-03T09:36:36;31.70;;;10.93;;
42832;SDS011;64089;51.478;5.692;2023-03-03T09:39:15;23.80;;;10.23;;
42832;SDS011;64089;51.478;5.692;2023-03-03T09:50:15;36.25;;;13.25;;
42832;SDS011;64089;51.478;5.692;2023-03-03T10:06:02;27.90;;;9.68;;
42832;SDS011;64089;51.478;5.692;2023-03-03T10:11:31;29.33;;;10.98;;
42832;SDS011;64089;51.478;5.692;2023-03-03T10:17:08;29.80;;;8.88;;
42832;SDS011;64089;51.478;5.692;2023-03-03T10:22:53;23.88;;;8.73;;
42832;SDS011;64089;51.478;5.692;2023-03-03T10:25:39;19.80;;;7.82;;
42832;SDS011;64089;51.478;5.692;2023-03-03T10:33:56;20.80;;;8.68;;
42832;SDS011;64089;51.478;5.692;2023-03-03T10:54:05;21.98;;;10.43;;
42832;SDS011;64089;51.478;5.692;2023-03-03T11:09:51;21.08;;;6.85;;
42832;SDS011;64089;51.478;5.692;2023-03-03T11:12:33;17.60;;;6.88;;
42832;SDS011;64089;51.478;5.692;2023-03-03T11:18:02;21.17;;;8.00;;
42832;SDS011;64089;51.478;5.692;2023-03-03T11:20:54;21.52;;;8.80;;
42832;SDS011;64089;51.478;5.692;2023-03-03T11:28:57;18.00;;;7.05;;
42832;SDS011;64089;51.478;5.692;2023-03-03T11:36:54;21.75;;;7.95;;
42832;SDS011;64089;51.478;5.692;2023-03-03T11:39:25;20.77;;;8.02;;
42832;SDS011;64089;51.478;5.692;2023-03-03T11:45:00;17.75;;;6.95;;
42832;SDS011;64089;51.478;5.692;2023-03-03T11:50:44;19.85;;;7.00;;
42832;SDS011;64089;51.478;5.692;2023-03-03T11:53:40;20.33;;;6.45;;
42832;SDS011;64089;51.478;5.692;2023-03-03T11:56:21;18.10;;;6.82;;
42832;SDS011;64089;51.478;5.692;2023-03-03T12:04:53;15.93;;;6.43;;
42832;SDS011;64089;51.478;5.692;2023-03-03T12:07:42;17.38;;;7.60;;
42832;SDS011;64089;51.478;5.692;2023-03-03T12:10:17;18.23;;;6.68;;
42832;SDS011;64089;51.478;5.692;2023-03-03T12:12:51;18.35;;;6.47;;
42832;SDS011;64089;51.478;5.692;2023-03-03T12:18:23;17.50;;;7.10;;
42832;SDS011;64089;51.478;5.692;2023-03-03T12:43:06;15.13;;;6.55;;
42832;SDS011;64089;51.478;5.692;2023-03-03T12:46:04;23.17;;;7.55;;
42832;SDS011;64089;51.478;5.692;2023-03-03T12:48:52;17.13;;;6.70;;
42832;SDS011;64089;51.478;5.692;2023-03-03T12:54:08;16.42;;;6.75;;
42832;SDS011;64089;51.478;5.692;2023-03-03T12:56:52;16.40;;;7.20;;
42832;SDS011;64089;51.478;5.692;2023-03-03T13:04:32;22.33;;;6.60;;
42832;SDS011;64089;51.478;5.692;2023-03-03T13:07:15;21.73;;;7.07;;
42832;SDS011;64089;51.478;5.692;2023-03-03T13:10:01;20.20;;;7.18;;
42832;SDS011;64089;51.478;5.692;2023-03-03T13:12:44;25.77;;;8.43;;
42832;SDS011;64089;51.478;5.692;2023-03-03T13:15:19;22.13;;;7.53;;
42832;SDS011;64089;51.478;5.692;2023-03-03T13:21:04;16.60;;;6.63;;
42832;SDS011;64089;51.478;5.692;2023-03-03T13:23:42;16.15;;;7.22;;
42832;SDS011;64089;51.478;5.692;2023-03-03T13:26:24;17.20;;;7.57;;
42832;SDS011;64089;51.478;5.692;2023-03-03T13:29:03;18.15;;;7.90;;
42832;SDS011;64089;51.478;5.692;2023-03-03T13:31:50;14.68;;;6.68;;
42832;SDS011;64089;51.478;5.692;2023-03-03T13:34:50;14.82;;;6.93;;
42832;SDS011;64089;51.478;5.692;2023-03-03T13:37:25;20.13;;;7.85;;
42832;SDS011;64089;51.478;5.692;2023-03-03T13:39:59;18.08;;;6.22;;
42832;SDS011;64089;51.478;5.692;2023-03-03T13:51:02;16.48;;;6.15;;
42832;SDS011;64089;51.478;5.692;2023-03-03T14:07:48;14.25;;;6.57;;
42832;SDS011;64089;51.478;5.692;2023-03-03T14:10:07;13.45;;;5.85;;
42832;SDS011;64089;51.478;5.692;2023-03-03T14:20:57;14.55;;;7.03;;
42832;SDS011;64089;51.478;5.692;2023-03-03T14:26:39;23.50;;;9.10;;
42832;SDS011;64089;51.478;5.692;2023-03-03T14:31:55;24.13;;;10.45;;
42832;SDS011;64089;51.478;5.692;2023-03-03T14:37:22;12.13;;;5.32;;
42832;SDS011;64089;51.478;5.692;2023-03-03T14:42:45;15.70;;;5.85;;
42832;SDS011;64089;51.478;5.692;2023-03-03T14:45:28;14.30;;;5.90;;
42832;SDS011;64089;51.478;5.692;2023-03-03T14:50:51;12.85;;;5.18;;
42832;SDS011;64089;51.478;5.692;2023-03-03T14:53:33;10.63;;;4.60;;
42832;SDS011;64089;51.478;5.692;2023-03-03T15:01:47;13.77;;;5.78;;
42832;SDS011;64089;51.478;5.692;2023-03-03T15:04:23;9.40;;;3.50;;
42832;SDS011;64089;51.478;5.692;2023-03-03T15:06:52;9.63;;;4.47;;
42832;SDS011;64089;51.478;5.692;2023-03-03T15:12:00;10.43;;;4.50;;
42832;SDS011;64089;51.478;5.692;2023-03-03T15:14:29;8.23;;;4.00;;
42832;SDS011;64089;51.478;5.692;2023-03-03T15:17:16;9.63;;;4.78;;
42832;SDS011;64089;51.478;5.692;2023-03-03T15:27:48;10.77;;;3.92;;
42832;SDS011;64089;51.478;5.692;2023-03-03T15:30:42;9.98;;;4.07;;
42832;SDS011;64089;51.478;5.692;2023-03-03T15:38:33;11.35;;;4.95;;
42832;SDS011;64089;51.478;5.692;2023-03-03T15:44:25;10.25;;;4.38;;
42832;SDS011;64089;51.478;5.692;2023-03-03T15:58:32;7.70;;;3.45;;
42832;SDS011;64089;51.478;5.692;2023-03-03T16:04:17;7.00;;;3.35;;
42832;SDS011;64089;51.478;5.692;2023-03-03T16:06:59;7.22;;;3.45;;
42832;SDS011;64089;51.478;5.692;2023-03-03T16:09:53;4.82;;;2.80;;
42832;SDS011;64089;51.478;5.692;2023-03-03T16:12:42;7.82;;;3.88;;
42832;SDS011;64089;51.478;5.692;2023-03-03T16:18:02;9.10;;;4.25;;
42832;SDS011;64089;51.478;5.692;2023-03-03T16:23:30;6.60;;;3.45;;
42832;SDS011;64089;51.478;5.692;2023-03-03T16:29:08;6.63;;;3.22;;
42832;SDS011;64089;51.478;5.692;2023-03-03T16:32:05;6.45;;;3.58;;
42832;SDS011;64089;51.478;5.692;2023-03-03T16:37:02;8.50;;;3.80;;
42832;SDS011;64089;51.478;5.692;2023-03-03T16:42:25;6.78;;;3.92;;
42832;SDS011;64089;51.478;5.692;2023-03-03T16:47:40;166.52;;;71.65;;
42832;SDS011;64089;51.478;5.692;2023-03-03T16:52:54;70.45;;;31.02;;
42832;SDS011;64089;51.478;5.692;2023-03-03T16:55:43;84.35;;;35.28;;
42832;SDS011;64089;51.478;5.692;2023-03-03T17:01:34;8.05;;;4.10;;
42832;SDS011;64089;51.478;5.692;2023-03-03T17:07:02;10.60;;;3.47;;
42832;SDS011;64089;51.478;5.692;2023-03-03T17:12:24;7.65;;;4.32;;
42832;SDS011;64089;51.478;5.692;2023-03-03T17:29:30;11.38;;;4.30;;
42832;SDS011;64089;51.478;5.692;2023-03-03T17:40:46;5.63;;;2.50;;
42832;SDS011;64089;51.478;5.692;2023-03-03T17:43:33;3.78;;;2.15;;
42832;SDS011;64089;51.478;5.692;2023-03-03T17:57:51;3.38;;;1.70;;
42832;SDS011;64089;51.478;5.692;2023-03-03T18:00:32;3.70;;;2.05;;
42832;SDS011;64089;51.478;5.692;2023-03-03T18:14:09;10.07;;;2.80;;
42832;SDS011;64089;51.478;5.692;2023-03-03T18:22:41;4.95;;;2.97;;
42832;SDS011;64089;51.478;5.692;2023-03-03T18:25:10;4.75;;;2.70;;
42832;SDS011;64089;51.478;5.692;2023-03-03T18:27:45;4.07;;;2.00;;
42832;SDS011;64089;51.478;5.692;2023-03-03T18:38:51;2.72;;;1.50;;
42832;SDS011;64089;51.478;5.692;2023-03-03T18:41:22;1.17;;;1.08;;
42832;SDS011;64089;51.478;5.692;2023-03-03T18:56:45;4.32;;;1.50;;
42832;SDS011;64089;51.478;5.692;2023-03-03T19:09:52;2.15;;;1.50;;
42832;SDS011;64089;51.478;5.692;2023-03-03T19:17:59;5.95;;;1.88;;
42832;SDS011;64089;51.478;5.692;2023-03-03T19:20:55;2.53;;;1.60;;
42832;SDS011;64089;51.478;5.692;2023-03-03T19:23:51;2.75;;;1.60;;
42832;SDS011;64089;51.478;5.692;2023-03-03T19:35:31;3.47;;;1.98;;
42832;SDS011;64089;51.478;5.692;2023-03-03T19:37:57;3.85;;;1.42;;
42832;SDS011;64089;51.478;5.692;2023-03-03T19:43:41;5.00;;;2.33;;
42832;SDS011;64089;51.478;5.692;2023-03-03T19:48:55;11.77;;;1.65;;
42832;SDS011;64089;51.478;5.692;2023-03-03T19:54:42;6.40;;;2.55;;
42832;SDS011;64089;51.478;5.692;2023-03-03T20:05:35;9.20;;;3.05;;
42832;SDS011;64089;51.478;5.692;2023-03-03T20:08:19;8.35;;;3.13;;
42832;SDS011;64089;51.478;5.692;2023-03-03T20:10:55;15.13;;;2.70;;
42832;SDS011;64089;51.478;5.692;2023-03-03T20:16:17;7.30;;;2.05;;
42832;SDS011;64089;51.478;5.692;2023-03-03T20:27:01;6.22;;;1.52;;
42832;SDS011;64089;51.478;5.692;2023-03-03T20:29:35;12.85;;;2.38;;
42832;SDS011;64089;51.478;5.692;2023-03-03T20:35:20;3.90;;;1.45;;
42832;SDS011;64089;51.478;5.692;2023-03-03T20:38:36;9.55;;;1.73;;
42832;SDS011;64089;51.478;5.692;2023-03-03T20:47:07;4.32;;;2.30;;
42832;SDS011;64089;51.478;5.692;2023-03-03T20:49:48;3.95;;;1.35;;
42832;SDS011;64089;51.478;5.692;2023-03-03T20:55:14;6.72;;;2.03;;
42832;SDS011;64089;51.478;5.692;2023-03-03T21:00:51;3.55;;;1.88;;
42832;SDS011;64089;51.478;5.692;2023-03-03T21:03:39;4.65;;;1.75;;
42832;SDS011;64089;51.478;5.692;2023-03-03T21:06:37;6.95;;;1.45;;
42832;SDS011;64089;51.478;5.692;2023-03-03T21:09:02;7.25;;;2.22;;
42832;SDS011;64089;51.478;5.692;2023-03-03T21:13:54;8.65;;;2.47;;
42832;SDS011;64089;51.478;5.692;2023-03-03T21:18:54;5.60;;;2.83;;
42832;SDS011;64089;51.478;5.692;2023-03-03T21:21:25;10.85;;;1.92;;
42832;SDS011;64089;51.478;5.692;2023-03-03T21:23:53;12.25;;;2.53;;
42832;SDS011;64089;51.478;5.692;2023-03-03T21:29:14;9.50;;;2.58;;
42832;SDS011;64089;51.478;5.692;2023-03-03T21:31:45;16.65;;;2.63;;
42832;SDS011;64089;51.478;5.692;2023-03-03T21:34:25;10.35;;;2.35;;
42832;SDS011;64089;51.478;5.692;2023-03-03T21:37:03;9.30;;;2.80;;
42832;SDS011;64089;51.478;5.692;2023-03-03T21:40:09;17.63;;;3.35;;
42832;SDS011;64089;51.478;5.692;2023-03-03T21:42:52;4.68;;;2.13;;
42832;SDS011;64089;51.478;5.692;2023-03-03T21:45:19;9.63;;;2.03;;
42832;SDS011;64089;51.478;5.692;2023-03-03T21:47:48;10.68;;;3.08;;
42832;SDS011;64089;51.478;5.692;2023-03-03T21:50:15;12.48;;;3.80;;
42832;SDS011;64089;51.478;5.692;2023-03-03T21:52:44;10.05;;;2.58;;
42832;SDS011;64089;51.478;5.692;2023-03-03T21:55:09;12.20;;;2.72;;
42832;SDS011;64089;51.478;5.692;2023-03-03T21:57:35;13.25;;;2.03;;
42832;SDS011;64089;51.478;5.692;2023-03-03T22:00:02;7.55;;;2.17;;
42832;SDS011;64089;51.478;5.692;2023-03-03T22:02:29;21.00;;;2.97;;
42832;SDS011;64089;51.478;5.692;2023-03-03T22:04:55;15.68;;;2.28;;